Time;durP1;ratioP1;P1;durP2;ratioP2;P2;SDS_P1;SDS_P2;PMS_P1;PMS_P2;Temp;Humidity;BMP_temperature;BMP_pressure;BME280_temperature;BME280_humidity;BME280_pressure;Samples;Min_cycle;Max_cycle;Signal;HPM_P1;HPM_P2
2022/06/10 00:02:06;;;;;;;;;0.00;0.00;;;;;16.50;58.46;101967.19;5021174;28;8886;-66
2022/06/10 00:04:34;;;;;;;;;1.00;1.00;;;;;16.47;58.65;101965.69;5025774;28;8828;-65
2022/06/10 00:07:01;;;;;;;;;2.00;2.00;;;;;16.41;58.56;101960.28;5022286;28;8903;-65
2022/06/10 00:09:28;;;;;;;;;1.50;1.00;;;;;16.44;58.37;101968.81;5022070;28;8947;-66
2022/06/10 00:11:54;;;;;;;;;3.67;1.33;;;;;16.46;58.59;101968.63;5021916;28;8809;-64
2022/06/10 00:14:21;;;;;;;;;3.00;1.00;;;;;16.41;58.35;101958.38;5020879;28;8912;-66
2022/06/10 00:16:47;;;;;;;;;3.00;1.00;;;;;16.39;58.22;101965.06;5025698;28;9652;-65
2022/06/10 00:19:14;;;;;;;;;1.67;1.00;;;;;16.39;58.34;101960.47;5030992;28;8824;-66
2022/06/10 00:21:40;;;;;;;;;1.75;1.00;;;;;16.40;58.39;101961.28;5016718;28;8920;-66
2022/06/10 00:24:07;;;;;;;;;1.33;1.33;;;;;16.34;58.11;101960.25;5028214;28;8894;-66
2022/06/10 00:26:34;;;;;;;;;0.00;0.00;;;;;16.32;58.74;101954.16;5018801;28;9688;-66
2022/06/10 00:29:02;;;;;;;;;1.00;1.00;;;;;16.31;58.61;101956.03;5029584;28;8993;-66
2022/06/10 00:31:29;;;;;;;;;1.75;1.00;;;;;16.32;58.62;101957.72;5032562;28;8809;-66
2022/06/10 00:33:55;;;;;;;;;3.00;1.33;;;;;16.27;58.69;101954.78;5020330;28;8840;-65
2022/06/10 00:36:22;;;;;;;;;1.00;1.00;;;;;16.26;58.58;101955.84;5028790;28;9015;-67
2022/06/10 00:38:49;;;;;;;;;1.00;1.00;;;;;16.29;58.82;101950.00;5029574;28;8997;-66
2022/06/10 00:41:16;;;;;;;;;0.00;0.00;;;;;16.31;58.87;101956.03;5028853;28;8927;-66
2022/06/10 00:43:42;;;;;;;;;2.00;2.00;;;;;16.28;58.85;101956.44;5027173;28;8915;-66
2022/06/10 00:46:20;;;;;;;;;2.00;2.00;;;;;16.30;59.26;101950.81;5033565;28;9055;-66
2022/06/10 00:48:54;;;;;;;;;1.00;1.00;;;;;16.27;59.07;101952.06;5031864;28;8955;-66
2022/06/10 00:51:28;;;;;;;;;2.67;2.67;;;;;16.23;59.41;101953.50;5041409;28;8914;-66
2022/06/10 00:54:01;;;;;;;;;1.00;1.00;;;;;16.21;59.79;101944.75;5053281;28;8987;-66
2022/06/10 00:56:28;;;;;;;;;1.67;1.33;;;;;16.23;60.03;101955.41;5053268;28;8978;-65
2022/06/10 00:59:12;;;;;;;;;1.00;1.00;;;;;16.22;59.68;101954.56;5052951;28;9102;-65
2022/06/10 01:01:40;;;;;;;;;1.33;1.00;;;;;16.23;59.57;101952.69;5034546;28;9161;-65
2022/06/10 01:04:08;;;;;;;;;0.67;0.67;;;;;16.24;60.08;101951.63;5017848;28;9876;-65
2022/06/10 01:06:35;;;;;;;;;1.67;1.00;;;;;16.25;59.91;101953.34;5022634;28;9066;-65
2022/06/10 01:09:03;;;;;;;;;2.00;2.00;;;;;16.23;60.03;101950.81;5029660;28;9737;-66
2022/06/10 01:11:50;;;;;;;;;1.33;1.33;;;;;16.21;59.66;101952.91;5024994;28;9037;-66
2022/06/10 01:15:00;;;;;;;;;2.00;1.00;;;;;16.20;59.78;101943.03;5032687;28;9009;-65
2022/06/10 01:17:48;;;;;;;;;2.00;1.00;;;;;16.16;60.20;101949.09;5032693;28;8985;-65
2022/06/10 01:20:45;;;;;;;;;4.33;1.00;;;;;16.12;60.38;101951.38;5032853;28;9135;-66
2022/06/10 01:23:34;;;;;;;;;1.00;1.00;;;;;16.13;60.39;101946.81;5032055;28;8977;-66
2022/06/10 01:27:47;;;;;;;;;2.33;1.00;;;;;16.13;60.60;101947.66;5031623;28;8910;-66
2022/06/10 01:29:40;;;;;;;;;1.00;1.00;;;;;16.11;60.52;101947.00;5023261;28;9014;-66
2022/06/10 01:32:17;;;;;;;;;2.00;1.00;;;;;16.11;60.46;101943.44;5027151;28;8976;-66
2022/06/10 01:35:05;;;;;;;;;2.00;2.00;;;;;16.13;60.95;101952.25;5032375;28;9074;-67
2022/06/10 01:37:42;;;;;;;;;2.00;2.00;;;;;16.14;60.69;101949.31;5031847;28;8967;-67
2022/06/10 01:40:24;;;;;;;;;1.67;1.67;;;;;16.15;60.52;101950.97;5032579;28;9165;-66
2022/06/10 01:43:14;;;;;;;;;1.33;1.00;;;;;16.14;60.60;101956.63;5023134;28;9144;-67
2022/06/10 01:46:16;;;;;;;;;0.75;0.75;;;;;16.13;61.03;101953.09;5014428;28;9076;-67
2022/06/10 01:49:08;;;;;;;;;2.33;1.00;;;;;16.18;61.15;101945.16;5030098;28;8824;-67
2022/06/10 01:52:07;;;;;;;;;3.00;1.00;;;;;16.22;61.27;101953.72;5032323;28;9782;-67
2022/06/10 01:55:15;;;;;;;;;1.67;1.00;;;;;16.25;61.09;101942.47;5032492;28;8921;-67
2022/06/10 01:57:48;;;;;;;;;3.33;2.33;;;;;16.22;61.19;101938.25;5032663;28;9003;-66
2022/06/10 02:00:22;;;;;;;;;1.00;1.00;;;;;16.24;61.53;101929.91;5032046;28;9105;-66
2022/06/10 02:02:58;;;;;;;;;4.00;2.00;;;;;16.21;61.45;101938.47;5031845;28;8939;-66
2022/06/10 02:05:27;;;;;;;;;2.00;1.00;;;;;16.23;61.47;101942.66;5032018;28;8847;-67
2022/06/10 02:08:04;;;;;;;;;2.33;1.00;;;;;16.26;61.44;101936.81;5031284;28;8946;-67
2022/06/10 02:10:39;;;;;;;;;2.25;1.00;;;;;16.28;61.30;101937.44;5031883;28;9086;-66
2022/06/10 02:13:15;;;;;;;;;2.00;2.00;;;;;16.29;61.25;101936.41;5031523;28;9792;-67
2022/06/10 02:15:51;;;;;;;;;1.00;1.00;;;;;16.30;61.20;101940.78;5031699;28;8886;-66
2022/06/10 02:18:28;;;;;;;;;1.50;1.50;;;;;16.29;61.76;101938.28;5031533;28;8904;-66
2022/06/10 02:21:05;;;;;;;;;2.00;2.00;;;;;16.28;61.63;101936.59;5031562;28;8820;-66
2022/06/10 02:23:41;;;;;;;;;2.67;1.00;;;;;16.28;61.65;101939.31;5031395;28;9114;-65
2022/06/10 02:26:07;;;;;;;;;1.00;1.00;;;;;16.28;62.00;101933.88;5031638;28;8983;-66
2022/06/10 02:28:39;;;;;;;;;5.33;2.00;;;;;16.28;62.01;101928.44;5027944;28;8844;-65
2022/06/10 02:31:13;;;;;;;;;1.33;1.33;;;;;16.29;61.94;101950.00;5015023;28;9140;-65
2022/06/10 02:33:40;;;;;;;;;1.00;1.00;;;;;16.29;61.99;101938.28;5011692;28;9002;-65
2022/06/10 02:36:28;;;;;;;;;3.00;2.00;;;;;16.32;61.89;101943.28;5023751;28;8984;-65
2022/06/10 02:39:10;;;;;;;;;4.33;3.00;;;;;16.30;62.01;101943.50;5024585;28;8942;-65
2022/06/10 02:41:50;;;;;;;;;4.00;2.33;;;;;16.30;62.34;101951.66;5014352;28;9078;-66
2022/06/10 02:44:27;;;;;;;;;3.00;2.00;;;;;16.29;62.42;101954.59;5050994;28;8940;-66
2022/06/10 02:47:15;;;;;;;;;2.00;2.00;;;;;16.28;62.23;101956.44;5011275;28;9008;-66
2022/06/10 02:49:42;;;;;;;;;2.00;2.00;;;;;16.28;62.63;101953.72;5011386;28;9068;-66
2022/06/10 02:52:12;;;;;;;;;2.00;2.00;;;;;16.17;62.87;101959.78;5011484;28;8907;-66
2022/06/10 02:54:40;;;;;;;;;4.33;2.00;;;;;16.13;63.67;101963.13;5020988;28;9059;-66
2022/06/10 02:57:15;;;;;;;;;2.67;2.00;;;;;16.16;63.88;101958.09;5029949;28;9037;-66
2022/06/10 03:03:10;;;;;;;;;5.33;2.00;;;;;16.21;65.05;101958.34;5030887;28;8828;-65
2022/06/10 03:05:46;;;;;;;;;5.00;2.00;;;;;16.22;64.95;101959.16;5029716;28;9039;-66
2022/06/10 03:08:26;;;;;;;;;1.67;1.67;;;;;16.23;65.17;101963.53;5030676;28;9215;-66
2022/06/10 03:10:52;;;;;;;;;1.00;1.00;;;;;16.22;65.80;101965.44;5030218;28;9667;-66
2022/06/10 03:13:48;;;;;;;;;2.00;2.00;;;;;16.21;65.64;101963.75;5030231;28;9217;-66
2022/06/10 03:16:44;;;;;;;;;3.33;3.00;;;;;16.21;65.42;101965.66;5030832;28;9116;-66
2022/06/10 03:19:49;;;;;;;;;1.67;1.67;;;;;16.19;65.59;101965.84;5006696;28;9013;-66
2022/06/10 03:22:48;;;;;;;;;1.33;1.00;;;;;16.21;66.07;101971.91;5010989;28;8979;-66
2022/06/10 03:25:28;;;;;;;;;3.67;2.33;;;;;16.21;65.82;101960.22;5010994;28;8948;-66
2022/06/10 03:28:10;;;;;;;;;0.67;0.67;;;;;16.20;65.83;101963.94;5030234;28;8978;-66
2022/06/10 03:30:48;;;;;;;;;7.33;3.33;;;;;16.20;65.95;101963.94;5030684;28;8993;-66
2022/06/10 03:33:23;;;;;;;;;2.00;2.00;;;;;16.19;66.07;101960.41;5021435;28;9804;-66
2022/06/10 03:36:00;;;;;;;;;2.00;2.00;;;;;16.22;66.21;101965.44;5010934;28;9004;-66
2022/06/10 03:38:30;;;;;;;;;4.33;2.33;;;;;16.21;66.20;101969.19;5009449;28;8924;-66
2022/06/10 03:40:59;;;;;;;;;1.67;1.67;;;;;16.22;66.41;101972.75;5010768;28;8981;-66
2022/06/10 03:43:35;;;;;;;;;1.00;1.00;;;;;16.22;66.77;101962.72;5044020;28;9052;-66
2022/06/10 03:46:05;;;;;;;;;2.25;2.25;;;;;16.23;67.12;101963.53;5038105;28;8914;-66
2022/06/10 03:48:35;;;;;;;;;1.00;1.00;;;;;16.19;67.07;101975.88;5030247;28;8833;-66
2022/06/10 03:51:02;;;;;;;;;2.75;2.75;;;;;16.17;67.53;101969.81;5030237;28;9071;-66
2022/06/10 03:53:29;;;;;;;;;4.33;3.00;;;;;16.16;68.02;101971.66;5029209;28;9649;-66
2022/06/10 03:55:55;;;;;;;;;2.00;2.00;;;;;16.18;67.95;101975.03;5030363;28;9217;-65
2022/06/10 03:58:23;;;;;;;;;2.00;2.00;;;;;16.20;68.04;101972.94;5030218;28;8832;-66
2022/06/10 04:00:50;;;;;;;;;10.00;5.33;;;;;16.18;68.01;101974.19;5029152;28;8920;-66
2022/06/10 04:03:16;;;;;;;;;3.00;3.00;;;;;16.13;68.22;101980.25;5028424;28;9177;-66
2022/06/10 04:05:44;;;;;;;;;4.00;3.67;;;;;16.10;68.66;101986.06;5029958;28;9079;-66
2022/06/10 04:08:30;;;;;;;;;3.00;2.67;;;;;16.02;69.10;101988.97;5025114;28;9130;-66
2022/06/10 04:10:57;;;;;;;;;2.67;2.67;;;;;16.04;69.38;101989.59;5033537;28;9037;-66
2022/06/10 04:13:23;;;;;;;;;7.33;5.00;;;;;16.02;69.71;101989.81;5033873;28;9807;-68
2022/06/10 04:15:50;;;;;;;;;2.33;2.00;;;;;16.06;70.00;101987.53;5032629;28;9234;-65
2022/06/10 04:18:17;;;;;;;;;2.00;2.00;;;;;16.08;70.21;101990.84;5033848;28;9066;-66
2022/06/10 04:20:43;;;;;;;;;4.67;2.00;;;;;16.11;70.01;101989.63;5032719;28;9158;-66
2022/06/10 04:23:12;;;;;;;;;5.67;4.00;;;;;16.06;70.35;101995.66;5033613;28;9147;-66
2022/06/10 04:25:39;;;;;;;;;6.67;5.67;;;;;15.96;70.66;102001.50;5034093;28;9139;-66
2022/06/10 04:28:06;;;;;;;;;8.33;6.33;;;;;15.88;71.25;101998.06;5033375;28;9069;-66
2022/06/10 04:30:38;;;;;;;;;3.00;3.00;;;;;15.85;71.55;102001.22;5033538;28;9178;-66
2022/06/10 04:33:05;;;;;;;;;5.50;4.00;;;;;15.82;71.84;102000.56;5033679;28;9050;-66
2022/06/10 04:35:35;;;;;;;;;4.67;3.33;;;;;15.83;72.28;101987.81;5030985;28;9007;-65
2022/06/10 04:38:01;;;;;;;;;3.67;3.33;;;;;15.79;72.45;101990.09;5032827;28;9147;-66
2022/06/10 04:40:33;;;;;;;;;3.33;3.00;;;;;15.82;72.89;101997.00;5016794;28;9064;-66
2022/06/10 04:43:00;;;;;;;;;5.00;3.00;;;;;15.82;72.95;101999.72;5045911;28;9293;-66
2022/06/10 04:45:30;;;;;;;;;6.00;4.67;;;;;15.80;73.27;101991.78;5019894;28;9143;-66
2022/06/10 04:47:58;;;;;;;;;3.33;3.33;;;;;15.81;73.02;101990.75;5013926;28;9074;-65
2022/06/10 04:50:27;;;;;;;;;5.67;5.00;;;;;15.85;73.10;101987.63;5012399;28;9114;-65
2022/06/10 04:52:55;;;;;;;;;4.00;4.00;;;;;15.87;73.02;101988.25;5013669;28;9141;-66
2022/06/10 04:55:23;;;;;;;;;3.67;3.33;;;;;15.89;73.10;101983.47;5013720;28;9106;-66
2022/06/10 04:57:49;;;;;;;;;4.33;3.33;;;;;15.90;73.21;101985.16;5029214;28;9087;-66
2022/06/10 05:00:39;;;;;;;;;4.00;4.00;;;;;15.91;73.46;101987.66;5031819;28;9831;-66
2022/06/10 05:03:07;;;;;;;;;4.00;4.00;;;;;15.93;73.27;101987.47;5033042;28;9040;-66
2022/06/10 05:05:34;;;;;;;;;5.33;5.33;;;;;15.93;73.42;101984.75;5033171;28;9046;-66
2022/06/10 05:08:02;;;;;;;;;5.00;2.33;;;;;15.96;73.72;101992.47;5031869;28;9084;-66
2022/06/10 05:10:29;;;;;;;;;5.00;3.00;;;;;16.01;73.64;101988.13;5032976;28;9170;-65
2022/06/10 05:12:56;;;;;;;;;3.67;3.67;;;;;16.05;73.75;101989.41;5032957;28;9233;-66
2022/06/10 05:15:23;;;;;;;;;3.00;3.00;;;;;16.06;73.58;101988.34;5030961;28;9146;-66
2022/06/10 05:17:51;;;;;;;;;2.00;2.00;;;;;16.06;73.50;101982.09;5032176;28;9138;-66
2022/06/10 05:20:22;;;;;;;;;5.00;5.00;;;;;16.04;73.57;101986.88;5031665;28;8899;-67
2022/06/10 05:22:50;;;;;;;;;4.67;2.67;;;;;16.03;73.36;101985.22;5031728;28;9163;-66
2022/06/10 05:25:18;;;;;;;;;3.67;3.00;;;;;16.05;73.65;101981.25;5033055;28;9071;-66
2022/06/10 05:27:45;;;;;;;;;3.33;3.33;;;;;16.10;73.95;101983.34;5032895;28;9058;-66
2022/06/10 05:30:19;;;;;;;;;3.00;3.00;;;;;16.13;73.41;101977.53;5031691;28;9133;-65
2022/06/10 05:32:45;;;;;;;;;8.00;3.00;;;;;16.15;73.31;101982.75;5031277;28;9004;-66
2022/06/10 05:35:13;;;;;;;;;1.33;1.33;;;;;16.14;73.00;101981.91;5012328;28;9078;-66
2022/06/10 05:37:41;;;;;;;;;2.33;2.33;;;;;16.12;73.28;101989.41;5012627;28;8977;-64
2022/06/10 05:40:20;;;;;;;;;3.00;3.00;;;;;16.10;73.07;101985.25;5013110;28;8989;-65
2022/06/10 05:42:47;;;;;;;;;3.00;2.00;;;;;16.07;73.54;101986.47;5012960;28;8928;-65
2022/06/10 05:45:17;;;;;;;;;3.67;3.67;;;;;16.09;73.24;101998.00;5012637;28;8909;-65
2022/06/10 05:47:45;;;;;;;;;6.00;4.00;;;;;16.10;73.58;101996.09;5012826;28;8986;-66
2022/06/10 05:50:23;;;;;;;;;4.00;4.00;;;;;16.09;73.44;101989.00;5025622;28;8916;-66
2022/06/10 05:52:50;;;;;;;;;3.00;3.00;;;;;16.13;73.47;101996.53;5019542;28;8944;-66
2022/06/10 05:55:18;;;;;;;;;1.00;1.00;;;;;16.16;73.10;101998.84;5018188;28;8914;-66
2022/06/10 05:57:46;;;;;;;;;2.00;2.00;;;;;16.14;73.32;102000.94;5012218;28;8944;-66
2022/06/10 06:00:21;;;;;;;;;1.33;1.00;;;;;16.16;73.45;102001.56;5010888;28;8929;-65
2022/06/10 06:02:47;;;;;;;;;3.33;3.00;;;;;16.18;73.53;102002.19;5020862;28;9003;-65
2022/06/10 06:05:15;;;;;;;;;5.00;3.00;;;;;16.21;73.22;101998.25;5032061;28;9047;-66
2022/06/10 06:07:44;;;;;;;;;3.00;3.00;;;;;16.18;73.31;102004.09;5019756;28;8985;-66
2022/06/10 06:10:15;;;;;;;;;2.00;2.00;;;;;16.19;73.44;101998.44;5012102;28;9019;-65
2022/06/10 06:12:42;;;;;;;;;1.33;1.33;;;;;16.23;73.63;102004.31;5012030;28;8913;-66
2022/06/10 06:15:10;;;;;;;;;1.00;1.00;;;;;16.24;73.25;102001.38;5011880;28;8919;-65
2022/06/10 06:17:36;;;;;;;;;5.33;4.00;;;;;16.27;73.19;102009.13;5030275;28;8993;-66
2022/06/10 06:20:04;;;;;;;;;4.00;3.67;;;;;16.21;73.00;102004.50;5020198;28;8919;-65
2022/06/10 06:22:31;;;;;;;;;2.50;2.00;;;;;16.22;73.36;102016.22;5011993;28;9720;-65
2022/06/10 06:24:57;;;;;;;;;5.33;2.00;;;;;16.22;72.88;102013.50;5017640;28;8828;-65
2022/06/10 06:27:23;;;;;;;;;3.00;3.00;;;;;16.21;72.61;102015.38;5031313;28;8904;-66
2022/06/10 06:29:50;;;;;;;;;1.25;1.25;;;;;16.23;72.41;102015.16;5031859;28;8905;-66
2022/06/10 06:32:17;;;;;;;;;1.33;1.33;;;;;16.28;72.53;102018.09;5031360;28;8890;-66
2022/06/10 06:34:44;;;;;;;;;1.00;1.00;;;;;16.34;72.52;102020.03;5031526;28;9048;-66
2022/06/10 06:37:14;;;;;;;;;3.67;3.67;;;;;16.35;71.65;102010.81;5022357;28;8831;-66
2022/06/10 06:39:41;;;;;;;;;2.00;2.00;;;;;16.37;71.66;102005.22;5026144;28;8908;-66
2022/06/10 06:42:10;;;;;;;;;4.00;2.75;;;;;16.36;71.57;102011.66;5036772;28;9611;-65
2022/06/10 06:44:43;;;;;;;;;2.00;2.00;;;;;16.36;71.47;102017.09;5017530;28;8824;-66
2022/06/10 06:47:30;;;;;;;;;4.75;3.00;;;;;16.39;71.33;102013.97;5014452;28;8923;-67
2022/06/10 06:49:56;;;;;;;;;2.00;2.00;;;;;16.41;71.63;102017.34;5021229;28;9049;-66
2022/06/10 06:52:22;;;;;;;;;2.00;2.00;;;;;16.44;71.61;102016.91;5027087;28;8937;-65
2022/06/10 06:54:49;;;;;;;;;2.25;2.25;;;;;16.45;70.65;102015.91;5013524;28;9506;-66
2022/06/10 06:57:17;;;;;;;;;3.00;3.00;;;;;16.47;70.85;102019.22;5011109;28;9490;-66
2022/06/10 06:59:43;;;;;;;;;4.00;3.00;;;;;16.49;70.61;102015.28;5015251;28;8799;-66
2022/06/10 07:02:10;;;;;;;;;2.75;2.25;;;;;16.54;70.64;102015.50;5011193;28;8997;-66
2022/06/10 07:04:37;;;;;;;;;3.00;3.00;;;;;16.60;70.33;102023.84;5010914;28;8834;-66
2022/06/10 07:07:05;;;;;;;;;3.50;2.75;;;;;16.62;70.22;102017.19;5009580;28;8839;-66
2022/06/10 07:09:31;;;;;;;;;3.00;3.00;;;;;16.59;70.02;102020.31;5012440;28;8947;-66
2022/06/10 07:11:58;;;;;;;;;3.33;3.00;;;;;16.61;69.98;102025.53;5030506;28;9024;-66
2022/06/10 07:14:24;;;;;;;;;3.00;2.00;;;;;16.66;70.00;102029.31;5030467;28;8985;-65
2022/06/10 07:16:51;;;;;;;;;3.00;3.00;;;;;16.67;69.78;102031.00;5030806;28;8881;-65
2022/06/10 07:19:19;;;;;;;;;3.50;3.50;;;;;16.69;69.72;102031.63;5030866;28;8813;-65
2022/06/10 07:21:45;;;;;;;;;5.33;4.33;;;;;16.70;69.32;102035.19;5030749;28;8894;-66
2022/06/10 07:24:19;;;;;;;;;4.25;3.00;;;;;16.72;69.54;102041.25;5030409;28;9647;-65
2022/06/10 07:26:46;;;;;;;;;4.00;3.00;;;;;16.71;69.39;102037.69;5021895;28;9608;-66
2022/06/10 07:29:13;;;;;;;;;6.00;6.00;;;;;16.74;69.33;102045.47;5009665;28;8986;-66
2022/06/10 07:31:41;;;;;;;;;2.00;2.00;;;;;16.80;69.82;102039.19;5014752;28;9097;-65
2022/06/10 07:34:09;;;;;;;;;1.50;1.50;;;;;16.84;69.47;102041.50;5025136;28;8813;-66
2022/06/10 07:36:36;;;;;;;;;3.25;3.25;;;;;16.86;69.87;102047.59;5011941;28;8859;-66
2022/06/10 07:39:03;;;;;;;;;2.00;2.00;;;;;16.90;70.00;102051.59;5011207;28;8871;-65
2022/06/10 07:44:19;;;;;;;;;3.00;2.50;;;;;16.94;70.25;102042.81;5021902;28;8831;-66
2022/06/10 07:46:48;;;;;;;;;4.33;3.00;;;;;16.91;70.78;102053.25;5011445;28;8850;-66
2022/06/10 07:49:14;;;;;;;;;2.00;2.00;;;;;16.95;71.32;102047.19;5028402;28;8908;-66
2022/06/10 07:51:41;;;;;;;;;4.33;4.33;;;;;16.99;71.33;102039.44;5019185;28;8840;-66
2022/06/10 07:54:08;;;;;;;;;2.75;2.00;;;;;16.97;71.50;102042.34;5030010;28;8982;-66
2022/06/10 07:56:34;;;;;;;;;2.00;2.00;;;;;17.03;71.55;102035.28;5014142;28;8905;-66
2022/06/10 07:59:01;;;;;;;;;4.67;3.33;;;;;17.14;71.14;102039.25;5013835;28;8833;-65
2022/06/10 08:01:29;;;;;;;;;2.00;2.00;;;;;17.27;70.53;102036.53;5024840;28;8904;-66
2022/06/10 08:03:56;;;;;;;;;3.00;2.00;;;;;17.38;70.26;102032.31;5015902;28;8846;-66
2022/06/10 08:06:25;;;;;;;;;3.67;2.67;;;;;17.47;69.96;102021.03;5010212;28;9664;-63
2022/06/10 08:08:52;;;;;;;;;6.00;3.00;;;;;17.57;70.36;102025.19;5010307;28;8948;-63
2022/06/10 08:11:20;;;;;;;;;2.75;2.75;;;;;17.71;69.94;102024.97;5012718;28;8942;-66
2022/06/10 08:13:47;;;;;;;;;3.00;3.00;;;;;17.81;69.58;102026.44;5028107;28;8828;-66
2022/06/10 08:16:14;;;;;;;;;4.75;4.00;;;;;17.79;69.11;102029.41;5025543;28;8831;-67
2022/06/10 08:18:41;;;;;;;;;7.50;6.00;;;;;17.76;69.22;102036.09;5025664;28;8821;-66
2022/06/10 08:24:01;;;;;;;;;2.00;2.00;;;;;17.71;68.75;102029.59;5010549;28;8919;-65
2022/06/10 08:26:28;;;;;;;;;2.25;2.25;;;;;17.83;68.94;102033.38;5016789;28;8805;-67
2022/06/10 08:28:58;;;;;;;;;2.50;2.50;;;;;17.94;68.52;102026.41;5017424;28;9855;-66
2022/06/10 08:31:25;;;;;;;;;3.00;3.00;;;;;17.93;67.86;102024.72;5010243;28;8842;-67
2022/06/10 08:33:52;;;;;;;;;3.00;2.25;;;;;17.98;67.57;102024.91;5023925;28;8951;-66
2022/06/10 08:36:19;;;;;;;;;3.00;2.00;;;;;17.98;67.32;102017.56;5015242;28;8808;-66
2022/06/10 08:38:49;;;;;;;;;4.00;2.25;;;;;17.99;67.04;102027.44;5029405;28;8809;-66
2022/06/10 08:41:39;;;;;;;;;4.25;3.50;;;;;17.91;66.99;102026.84;5029689;28;8848;-65
2022/06/10 08:44:25;;;;;;;;;3.75;3.00;;;;;17.88;66.94;102027.28;5024015;28;8906;-66
2022/06/10 08:47:27;;;;;;;;;3.00;2.25;;;;;17.90;66.92;102027.88;5012530;28;8930;-66
2022/06/10 08:50:16;;;;;;;;;3.00;3.00;;;;;17.93;66.59;102041.06;5012312;28;8885;-66
2022/06/10 08:53:17;;;;;;;;;6.00;5.25;;;;;17.78;65.92;102024.97;5021118;28;8835;-66
2022/06/10 08:56:17;;;;;;;;;6.00;4.00;;;;;17.84;65.83;102020.56;5016899;28;8910;-66
2022/06/10 08:58:59;;;;;;;;;5.50;4.25;;;;;18.04;65.52;102027.63;5018632;28;8836;-67
2022/06/10 09:01:30;;;;;;;;;4.25;4.25;;;;;18.24;64.96;102019.38;5023644;28;8858;-67
2022/06/10 09:04:23;;;;;;;;;4.50;3.50;;;;;18.42;64.81;102020.56;5013248;28;8970;-66
2022/06/10 09:06:53;;;;;;;;;4.50;2.50;;;;;18.51;64.46;102016.50;5024007;28;8828;-66
2022/06/10 09:09:25;;;;;;;;;6.00;2.75;;;;;18.50;64.34;102025.75;5029489;28;8816;-66
2022/06/10 09:12:12;;;;;;;;;5.50;3.75;;;;;18.46;64.43;102022.63;5024171;28;8848;-67
2022/06/10 09:14:39;;;;;;;;;5.00;5.00;;;;;18.46;64.45;102029.97;5024147;28;9636;-66
2022/06/10 09:17:30;;;;;;;;;5.75;5.75;;;;;18.49;64.70;102029.53;5017241;28;8863;-65
2022/06/10 09:20:18;;;;;;;;;4.50;4.50;;;;;18.45;64.20;102037.31;5027876;28;8843;-66
2022/06/10 09:22:51;;;;;;;;;3.50;3.50;;;;;18.46;64.10;102035.41;5013309;28;8815;-66
2022/06/10 09:25:26;;;;;;;;;6.00;4.00;;;;;18.48;64.21;102036.06;5011970;28;8835;-66
2022/06/10 09:27:56;;;;;;;;;6.25;4.75;;;;;18.43;64.27;102044.88;5014222;28;8852;-65
2022/06/10 09:30:33;;;;;;;;;4.25;4.25;;;;;18.44;64.29;102038.38;5029517;28;8902;-66
2022/06/10 09:33:29;;;;;;;;;8.00;8.00;;;;;18.46;64.39;102038.97;5011541;28;8905;-66
2022/06/10 09:36:37;;;;;;;;;8.75;8.75;;;;;18.49;64.35;102037.72;5019967;28;9292;-65
2022/06/10 09:42:27;;;;;;;;;8.00;6.75;;;;;18.53;64.30;102031.59;5023452;28;8836;-64
2022/06/10 09:45:01;;;;;;;;;8.00;8.00;;;;;18.66;64.16;102027.97;5024293;28;8832;-66
2022/06/10 09:48:15;;;;;;;;;6.25;5.50;;;;;18.82;64.13;102028.53;5031538;28;8824;-66
2022/06/10 09:51:00;;;;;;;;;7.50;7.50;;;;;18.89;63.53;102024.72;5023536;28;8911;-65
2022/06/10 09:53:47;;;;;;;;;12.75;9.75;;;;;19.00;63.58;102014.97;5025933;28;9578;-65
2022/06/10 09:56:41;;;;;;;;;6.50;5.25;;;;;19.13;63.42;102030.41;5014873;28;8831;-65
2022/06/10 09:59:38;;;;;;;;;7.25;7.25;;;;;19.13;62.96;102028.50;5031260;28;9551;-66
2022/06/10 10:02:17;;;;;;;;;8.00;7.00;;;;;19.23;62.75;102041.66;5027280;28;9055;-65
2022/06/10 10:05:02;;;;;;;;;8.00;8.00;;;;;19.25;62.33;102045.00;5023270;28;8823;-66
2022/06/10 10:07:36;;;;;;;;;9.75;9.00;;;;;19.40;62.30;102042.75;5013634;28;8838;-65
2022/06/10 10:10:29;;;;;;;;;9.25;9.25;;;;;19.49;61.45;102040.59;5031367;28;8820;-65
2022/06/10 10:13:17;;;;;;;;;7.75;7.75;;;;;19.47;61.19;102031.78;5010290;28;8862;-66
2022/06/10 10:15:53;;;;;;;;;7.00;7.00;;;;;19.36;61.26;102033.34;5020755;28;9538;-65
2022/06/10 10:18:42;;;;;;;;;5.00;5.00;;;;;19.30;61.52;102038.88;5011850;28;9593;-65
2022/06/10 10:21:13;;;;;;;;;7.25;6.25;;;;;19.30;61.79;102039.72;5014721;28;9087;-65
2022/06/10 10:23:42;;;;;;;;;6.00;4.75;;;;;19.35;61.58;102034.41;5027856;28;9634;-65
2022/06/10 10:26:32;;;;;;;;;9.00;8.75;;;;;19.50;61.48;102037.63;5018900;28;8876;-66
2022/06/10 10:29:18;;;;;;;;;5.75;5.75;;;;;19.51;60.97;102039.31;5022702;28;8816;-64
2022/06/10 10:31:51;;;;;;;;;5.00;5.00;;;;;19.63;60.42;102030.41;5018941;28;8835;-65
2022/06/10 10:34:25;;;;;;;;;5.75;3.50;;;;;19.67;60.35;102029.72;5024521;28;8877;-66
2022/06/10 10:37:01;;;;;;;;;6.25;4.00;;;;;19.71;60.13;102025.47;5027275;28;8852;-66
2022/06/10 10:39:34;;;;;;;;;5.75;5.75;;;;;19.71;59.91;102020.00;5031159;28;8836;-66
2022/06/10 10:42:06;;;;;;;;;3.50;3.50;;;;;19.79;59.41;102034.44;5028838;28;8910;-66
2022/06/10 10:44:45;;;;;;;;;5.00;5.00;;;;;19.92;59.53;102045.22;5026944;28;9616;-66
2022/06/10 10:47:11;;;;;;;;;5.25;5.25;;;;;19.93;58.90;102030.50;5024691;28;8928;-66
2022/06/10 10:50:07;;;;;;;;;3.50;3.50;;;;;19.92;59.00;102026.94;5024844;28;8828;-66
2022/06/10 10:52:33;;;;;;;;;5.50;5.50;;;;;19.83;58.89;102027.47;5031094;28;8902;-66
2022/06/10 10:55:19;;;;;;;;;5.75;2.75;;;;;19.65;58.66;102031.88;5021651;28;8840;-66
2022/06/10 10:57:59;;;;;;;;;3.00;3.00;;;;;19.58;59.08;102052.91;5027209;28;9524;-66
2022/06/10 11:00:33;;;;;;;;;3.00;3.00;;;;;19.59;59.11;102051.84;5022143;28;8840;-65
2022/06/10 11:03:02;;;;;;;;;2.25;2.25;;;;;19.52;59.09;102051.06;5009970;28;8921;-65
2022/06/10 11:05:35;;;;;;;;;2.00;2.00;;;;;19.54;58.73;102053.59;5028207;28;8829;-66
2022/06/10 11:08:22;;;;;;;;;2.50;2.25;;;;;19.57;58.69;102051.25;5038232;28;8928;-66
2022/06/10 11:10:50;;;;;;;;;2.00;2.00;;;;;19.58;58.61;102049.34;5035158;28;8846;-66
2022/06/10 11:13:28;;;;;;;;;2.50;2.00;;;;;19.58;58.77;102060.28;5038376;28;8832;-66
2022/06/10 11:15:55;;;;;;;;;1.50;0.50;;;;;19.64;58.25;102043.00;5041024;28;9563;-66
2022/06/10 11:18:21;;;;;;;;;1.00;1.00;;;;;19.79;58.53;102050.84;5034696;28;8935;-66
2022/06/10 11:20:48;;;;;;;;;1.00;1.00;;;;;19.89;58.49;102051.13;5033450;28;8878;-66
2022/06/10 11:23:24;;;;;;;;;1.00;1.00;;;;;19.95;58.10;102044.78;5027860;28;8864;-66
2022/06/10 11:26:14;;;;;;;;;2.00;1.00;;;;;20.05;57.67;102038.78;5027833;28;8840;-66
2022/06/10 11:28:44;;;;;;;;;2.50;2.00;;;;;20.18;57.59;102033.16;5025249;28;8941;-66
2022/06/10 11:31:26;;;;;;;;;1.00;1.00;;;;;20.22;57.26;102043.41;5023322;28;8847;-66
2022/06/10 11:33:57;;;;;;;;;1.75;0.50;;;;;20.38;56.72;102038.38;5026611;28;8806;-66
2022/06/10 11:36:28;;;;;;;;;1.00;1.00;;;;;20.37;56.49;102036.69;5032714;28;8817;-65
2022/06/10 11:39:22;;;;;;;;;0.25;0.25;;;;;20.25;55.76;102040.22;5042231;28;8935;-67
2022/06/10 11:42:14;;;;;;;;;2.25;1.00;;;;;20.22;55.91;102040.69;5028860;28;8902;-66
2022/06/10 11:44:54;;;;;;;;;1.00;1.00;;;;;20.24;55.85;102037.69;5032890;28;8955;-66
2022/06/10 11:47:39;;;;;;;;;2.00;2.00;;;;;20.21;55.31;102040.88;5029928;28;8826;-66
2022/06/10 11:50:25;;;;;;;;;1.75;1.75;;;;;19.99;55.61;102040.53;5042236;28;8915;-66
2022/06/10 11:53:02;;;;;;;;;2.00;2.00;;;;;20.00;56.14;102043.03;5017584;28;8842;-66
2022/06/10 11:55:35;;;;;;;;;2.25;1.50;;;;;19.92;56.04;102037.84;5031236;28;8849;-66
2022/06/10 12:01:20;;;;;;;;;1.00;1.00;;;;;19.86;55.03;102037.94;5019686;28;8832;-66
2022/06/10 12:04:04;;;;;;;;;1.00;1.00;;;;;19.92;55.00;102028.81;5013527;28;8921;-66
2022/06/10 12:06:40;;;;;;;;;1.00;1.00;;;;;19.84;54.39;102040.06;5025405;28;8802;-67
2022/06/10 12:09:31;;;;;;;;;0.75;0.75;;;;;19.99;54.63;102035.91;5017227;28;8805;-67
2022/06/10 12:12:20;;;;;;;;;1.75;1.75;;;;;20.06;54.55;102035.81;5018271;28;8910;-66
2022/06/10 12:14:51;;;;;;;;;0.25;0.25;;;;;20.15;55.28;102039.91;5014317;28;8909;-66
2022/06/10 12:17:29;;;;;;;;;0.00;0.00;;;;;20.21;54.71;102038.97;5010984;28;8843;-66
2022/06/10 12:20:31;;;;;;;;;1.75;1.00;;;;;20.22;54.53;102035.22;5019629;28;8827;-66
2022/06/10 12:23:10;;;;;;;;;1.00;1.00;;;;;20.24;54.53;102044.00;4984504;28;8844;-67
2022/06/10 12:25:49;;;;;;;;;1.00;1.00;;;;;20.26;54.52;102035.59;5026205;28;8848;-67